createdAt,value
2019-05-14T00:01:25.087Z,97344.95
2019-05-14T00:03:58.801Z,97354.18
2019-05-14T00:06:31.131Z,97343.11
2019-05-14T00:09:03.011Z,97342.33
2019-05-14T00:11:36.581Z,97351.81
2019-05-14T00:14:11.448Z,97356.81
2019-05-14T00:16:43.702Z,97350.48
2019-05-14T00:19:15.687Z,97348.63
2019-05-14T00:21:47.572Z,97352.33
2019-05-14T00:24:19.114Z,97347.06
2019-05-14T00:26:51.874Z,97344.69
2019-05-14T00:29:23.523Z,97349.95
2019-05-14T00:31:56.982Z,97335.42
2019-05-14T00:34:51.449Z,97333.07
2019-05-14T00:37:24.289Z,97334.38
2019-05-14T00:39:57.203Z,97332.04
2019-05-14T00:42:28.877Z,97337.30
2019-05-14T00:45:03.370Z,97323.05
2019-05-14T00:47:38.330Z,97323.82
2019-05-14T00:50:12.983Z,97321.18
2019-05-14T00:52:46.368Z,97317.52
2019-05-14T00:55:22.096Z,97327.77
2019-05-14T00:57:52.842Z,97313.51
2019-05-14T01:00:28.519Z,97311.89
2019-05-14T01:03:03.294Z,97301.13
2019-05-14T01:05:35.082Z,97329.34
2019-05-14T01:08:09.181Z,97350.73
2019-05-14T01:10:44.441Z,97323.80
2019-05-14T01:13:15.937Z,97332.80
2019-05-14T01:15:52.184Z,97345.19
2019-05-14T01:18:26.768Z,97338.34
2019-05-14T01:21:01.306Z,97335.44
2019-05-14T01:23:32.687Z,97344.91
2019-05-14T01:26:05.780Z,97340.72
2019-05-14T01:28:38.812Z,97339.39
2019-05-14T01:31:14.768Z,97343.89
2019-05-14T01:34:08.527Z,97357.60
2019-05-14T01:36:42.466Z,97358.39
2019-05-14T01:39:15.318Z,97353.38
2019-05-14T01:41:51.501Z,97371.33
2019-05-14T01:44:22.617Z,97372.13
2019-05-14T01:46:55.149Z,97359.45
2019-05-14T01:49:27.910Z,97357.88
2019-05-14T01:52:01.766Z,97352.90
2019-05-14T01:54:35.314Z,97355.27
2019-05-14T01:59:42.872Z,97352.10
2019-05-14T02:02:15.359Z,97353.67
2019-05-14T02:04:48.460Z,97336.55
2019-05-14T02:07:22.139Z,97352.12
2019-05-14T02:09:55.130Z,97341.56
2019-05-14T02:12:31.560Z,97344.19
2019-05-14T02:15:04.517Z,97344.47
2019-05-14T02:17:37.614Z,97351.58
2019-05-14T02:20:09.718Z,97358.97
2019-05-14T02:22:42.756Z,97354.22
2019-05-14T02:25:17.784Z,97351.30
2019-05-14T02:27:51.779Z,97357.39
2019-05-14T02:30:33.309Z,97352.90
2019-05-14T02:32:59.592Z,97350.78
2019-05-14T02:35:34.319Z,97353.16
2019-05-14T02:38:05.901Z,97351.31
2019-05-14T02:40:40.567Z,97349.45
2019-05-14T02:43:12.536Z,97339.95
2019-05-14T02:46:01.965Z,97332.31
2019-05-14T02:48:20.255Z,97324.92
2019-05-14T02:50:51.797Z,97323.63
2019-05-14T02:53:23.383Z,97319.41
2019-05-14T02:55:59.546Z,97308.88
2019-05-14T02:58:31.232Z,97300.95
2019-05-14T03:01:03.354Z,97297.51
2019-05-14T03:03:40.189Z,97310.16
2019-05-14T03:06:11.629Z,97303.06
2019-05-14T03:08:44.615Z,97293.56
2019-05-14T03:11:20.131Z,97296.20
2019-05-14T03:13:53.366Z,97286.45
2019-05-14T03:16:34.590Z,97286.70
2019-05-14T03:19:03.289Z,97285.13
2019-05-14T03:21:39.549Z,97285.39
2019-05-14T03:24:13.071Z,97278.52
2019-05-14T03:26:46.269Z,97283.00
2019-05-14T03:29:25.790Z,97274.05
2019-05-14T03:31:55.797Z,97280.37
2019-05-14T03:34:32.232Z,97266.13
2019-05-14T03:37:03.780Z,97271.16
2019-05-14T03:39:35.080Z,97259.80
2019-05-14T03:42:09.548Z,97256.66
2019-05-14T03:44:41.197Z,97252.44
2019-05-14T03:47:15.720Z,97242.68
2019-05-14T03:49:49.829Z,97243.19
2019-05-14T03:52:21.656Z,97240.30
2019-05-14T03:54:53.015Z,97235.31
2019-05-14T03:57:25.322Z,97231.63
2019-05-14T03:59:59.805Z,97238.20
2019-05-14T04:02:31.073Z,97230.55
2019-05-14T04:05:05.551Z,97236.08
2019-05-14T04:07:39.921Z,97214.45
2019-05-14T04:10:12.102Z,97197.58
2019-05-14T04:12:49.151Z,97192.83
2019-05-14T04:15:25.634Z,97193.34
2019-05-14T04:17:59.658Z,97204.16
2019-05-14T04:20:35.220Z,97193.88
2019-05-14T04:23:09.627Z,97202.05
2019-05-14T04:25:43.101Z,97206.81
2019-05-14T04:28:19.414Z,97213.64
2019-05-14T04:31:11.903Z,97218.67
2019-05-14T04:33:49.701Z,97223.16
2019-05-14T04:36:22.941Z,97213.14
2019-05-14T04:39:14.906Z,97221.31
2019-05-14T04:41:49.892Z,97214.96
2019-05-14T04:44:22.033Z,97220.23
2019-05-14T04:47:21.490Z,97217.35
2019-05-14T04:49:40.335Z,97220.77
2019-05-14T04:52:12.959Z,97220.24
2019-05-14T04:54:45.954Z,97223.14
2019-05-14T04:57:20.310Z,97218.83
2019-05-14T04:59:51.237Z,97234.33
2019-05-14T05:02:23.063Z,97224.19
2019-05-14T05:04:54.461Z,97235.42
2019-05-14T05:07:29.863Z,97246.03
2019-05-14T05:10:01.228Z,97234.87
2019-05-14T05:12:33.551Z,97243.17
2019-05-14T05:15:10.277Z,97249.61
2019-05-14T05:17:48.543Z,97252.80
2019-05-14T05:20:19.343Z,97258.78
2019-05-14T05:22:50.044Z,97261.98
2019-05-14T05:25:21.704Z,97270.74
2019-05-14T05:27:56.430Z,97269.59
2019-05-14T05:30:29.460Z,97278.03
2019-05-14T05:33:01.010Z,97279.29
2019-05-14T05:35:33.465Z,97284.37
2019-05-14T05:38:04.866Z,97283.58
2019-05-14T05:40:39.180Z,97283.85
2019-05-14T05:43:12.903Z,97281.52
2019-05-14T05:45:56.291Z,97283.67
2019-05-14T05:48:28.973Z,97295.63
2019-05-14T05:51:01.936Z,97291.70
2019-05-14T05:53:34.030Z,97285.43
2019-05-14T05:56:05.416Z,97283.77
2019-05-14T05:58:39.785Z,97284.56
2019-05-14T06:01:10.758Z,97294.91
2019-05-14T06:03:42.145Z,97309.41
2019-05-14T06:06:13.979Z,97295.92
2019-05-14T06:08:45.267Z,97299.09
2019-05-14T06:11:19.427Z,97301.77
2019-05-14T06:13:51.529Z,97307.55
2019-05-14T06:16:22.864Z,97301.17
2019-05-14T06:18:55.656Z,97308.38
2019-05-14T06:21:29.201Z,97303.09
2019-05-14T06:24:02.856Z,97305.73
2019-05-14T06:26:34.677Z,97307.25
2019-05-14T06:29:08.456Z,97309.55
2019-05-14T06:31:41.285Z,97320.72
2019-05-14T06:34:14.316Z,97318.11
2019-05-14T06:36:48.359Z,97323.45
2019-05-14T06:39:19.448Z,97326.89
2019-05-14T06:41:52.336Z,97327.59
2019-05-14T06:44:23.797Z,97315.64
2019-05-14T06:46:55.154Z,97315.90
2019-05-14T06:49:29.118Z,97313.77
2019-05-14T06:52:01.729Z,97318.69
2019-05-14T06:54:38.472Z,97298.23
2019-05-14T06:57:09.479Z,97313.19
2019-05-14T06:59:40.834Z,97306.27
2019-05-14T07:02:12.830Z,97315.89
2019-05-14T07:04:44.916Z,97322.13
2019-05-14T07:07:16.320Z,97316.38
2019-05-14T07:09:48.813Z,97318.63
2019-05-14T07:12:20.156Z,97318.63
2019-05-14T07:15:13.796Z,97329.22
2019-05-14T07:17:48.650Z,97321.74
2019-05-14T07:20:20.093Z,97319.13
2019-05-14T07:22:51.507Z,97314.50
2019-05-14T07:25:23.899Z,97322.06
2019-05-14T07:27:55.360Z,97328.92
2019-05-14T07:30:29.038Z,97332.63
2019-05-14T07:32:59.916Z,97334.33
2019-05-14T07:35:31.916Z,97330.20
2019-05-14T07:38:04.037Z,97323.37
2019-05-14T07:40:38.586Z,97325.39
2019-05-14T07:43:09.015Z,97313.06
2019-05-14T07:45:41.639Z,97318.06
2019-05-14T07:48:13.348Z,97313.63
2019-05-14T07:50:48.172Z,97310.93
2019-05-14T07:53:18.205Z,97305.86
2019-05-14T07:55:49.547Z,97299.36
2019-05-14T07:58:24.114Z,97293.27
2019-05-14T08:00:55.604Z,97289.52
2019-05-14T08:03:28.546Z,97290.63
2019-05-14T08:06:00.436Z,97268.26
2019-05-14T08:08:35.063Z,97269.36
2019-05-14T08:11:08.441Z,97287.33
2019-05-14T08:13:40.990Z,97280.20
2019-05-14T08:16:12.967Z,97275.97
2019-05-14T08:18:45.270Z,97287.16
2019-05-14T08:21:19.370Z,97271.27
2019-05-14T08:23:54.385Z,97269.51
2019-05-14T08:26:26.272Z,97280.10
2019-05-14T08:28:59.179Z,97292.04
2019-05-14T08:31:31.474Z,97274.00
2019-05-14T08:34:04.658Z,97272.13
2019-05-14T08:36:39.242Z,97277.21
2019-05-14T08:39:14.206Z,97281.65
2019-05-14T08:41:55.814Z,97283.49
2019-05-14T08:44:30.682Z,97284.77
2019-05-14T08:48:04.215Z,97265.70
2019-05-14T08:50:09.349Z,97278.33
2019-05-14T08:52:48.291Z,97279.81
2019-05-14T08:55:19.713Z,97268.86
2019-05-14T08:58:01.922Z,97256.03
2019-05-14T09:00:35.840Z,97249.03
2019-05-14T09:03:09.192Z,97268.37
2019-05-14T09:05:43.861Z,97260.06
2019-05-14T09:08:19.281Z,97254.22
2019-05-14T09:10:50.867Z,97263.77
2019-05-14T09:13:25.925Z,97254.56
2019-05-14T09:15:59.147Z,97248.38
2019-05-14T09:18:33.932Z,97255.58
2019-05-14T09:21:08.448Z,97252.03
2019-05-14T09:23:39.663Z,97251.28
2019-05-14T09:26:11.278Z,97235.25
2019-05-14T09:28:42.928Z,97230.08
2019-05-14T09:31:15.489Z,97244.21
2019-05-14T09:33:49.563Z,97254.70
2019-05-14T09:36:24.200Z,97257.22
2019-05-14T09:38:58.535Z,97266.43
2019-05-14T09:41:31.822Z,97255.41
2019-05-14T09:44:04.174Z,97265.64
2019-05-14T09:46:38.642Z,97289.75
2019-05-14T09:49:09.806Z,97297.78
2019-05-14T09:51:42.781Z,97302.79
2019-05-14T09:54:19.147Z,97296.66
2019-05-14T09:56:52.946Z,97281.78
2019-05-14T09:59:27.875Z,97265.22
2019-05-14T10:01:59.658Z,97268.59
2019-05-14T10:04:33.338Z,97270.18
2019-05-14T10:07:05.490Z,97288.14
2019-05-14T10:09:39.051Z,97279.38
2019-05-14T10:12:10.856Z,97276.17
2019-05-14T10:14:43.597Z,97288.61
2019-05-14T10:17:19.151Z,97290.44
2019-05-14T10:19:50.753Z,97291.87
2019-05-14T10:22:23.871Z,97276.95
2019-05-14T10:24:58.251Z,97271.25
2019-05-14T10:27:31.596Z,97275.38
2019-05-14T10:30:03.657Z,97266.70
2019-05-14T10:32:41.715Z,97276.44
2019-05-14T10:35:15.720Z,97277.02
2019-05-14T10:37:48.627Z,97285.69
2019-05-14T10:40:41.443Z,97269.65
2019-05-14T10:43:33.623Z,97260.06
2019-05-14T10:46:05.482Z,97274.78
2019-05-14T10:48:39.320Z,97289.79
2019-05-14T10:51:13.529Z,97281.86
2019-05-14T10:53:48.520Z,97282.23
2019-05-14T10:56:21.931Z,97278.91
2019-05-14T10:58:54.384Z,97281.48
2019-05-14T11:01:28.252Z,97277.45
2019-05-14T11:03:59.063Z,97272.84
2019-05-14T11:06:31.862Z,97281.13
2019-05-14T11:09:05.391Z,97289.52
2019-05-14T11:11:58.885Z,97294.33
2019-05-14T11:14:50.133Z,97277.23
2019-05-14T11:17:41.581Z,97270.48
2019-05-14T11:20:31.184Z,97275.89
2019-05-14T11:25:54.772Z,97258.25
2019-05-14T11:28:35.645Z,97271.81
2019-05-14T11:31:19.599Z,97265.63
2019-05-14T11:33:53.529Z,97254.52
2019-05-14T11:36:50.051Z,97252.72
2019-05-14T11:39:20.819Z,97260.50
2019-05-14T11:41:55.802Z,97262.95
2019-05-14T11:44:29.292Z,97263.77
2019-05-14T11:47:02.769Z,97268.26
2019-05-14T11:49:34.486Z,97258.24
2019-05-14T11:52:11.072Z,97231.38
2019-05-14T11:54:40.918Z,97260.18
2019-05-14T11:57:13.163Z,97252.97
2019-05-14T11:59:46.134Z,97252.60
2019-05-14T12:02:19.993Z,97242.20
2019-05-14T12:04:51.920Z,97260.50
2019-05-14T12:07:23.463Z,97247.98
2019-05-14T12:09:56.163Z,97221.05
2019-05-14T12:12:28.841Z,97244.27
2019-05-14T12:15:01.749Z,97252.17
2019-05-14T12:17:39.369Z,97253.25
2019-05-14T12:20:14.947Z,97236.62
2019-05-14T12:22:48.704Z,97235.38
2019-05-14T12:25:21.920Z,97245.68
2019-05-14T12:27:59.158Z,97239.34
2019-05-14T12:30:34.956Z,97240.16
2019-05-14T12:33:07.582Z,97224.36
2019-05-14T12:35:40.204Z,97239.94
2019-05-14T12:38:11.927Z,97245.20
2019-05-14T12:40:43.508Z,97252.94
2019-05-14T12:43:15.661Z,97245.55
2019-05-14T12:45:50.204Z,97240.78
2019-05-14T12:48:22.874Z,97238.31
2019-05-14T12:50:54.268Z,97243.23
2019-05-14T12:53:48.811Z,97239.41
2019-05-14T12:56:22.204Z,97239.52
2019-05-14T12:58:58.110Z,97253.36
2019-05-14T13:01:29.454Z,97267.34
2019-05-14T13:04:01.187Z,97257.91
2019-05-14T13:06:33.244Z,97250.75
2019-05-14T13:09:05.784Z,97259.86
2019-05-14T13:11:41.352Z,97229.89
2019-05-14T13:14:10.694Z,97236.83
2019-05-14T13:16:42.086Z,97255.00
2019-05-14T13:19:13.983Z,97255.73
2019-05-14T13:21:45.332Z,97262.39
2019-05-14T13:24:18.510Z,97254.61
2019-05-14T13:26:51.349Z,97259.00
2019-05-14T13:29:28.751Z,97261.37
2019-05-14T13:32:03.033Z,97264.80
2019-05-14T13:34:35.069Z,97261.83
2019-05-14T13:37:21.651Z,97265.78
2019-05-14T13:39:59.653Z,97252.84
2019-05-14T13:42:33.135Z,97258.75
2019-05-14T13:45:10.652Z,97261.72
2019-05-14T13:47:44.471Z,97256.36
2019-05-14T13:50:19.426Z,97253.47
2019-05-14T13:56:09.322Z,97260.02
2019-05-14T13:58:43.900Z,97251.08
2019-05-14T14:01:15.676Z,97268.03
2019-05-14T14:04:02.219Z,97266.97
2019-05-14T14:06:21.077Z,97270.88
2019-05-14T14:08:54.150Z,97273.83
2019-05-14T14:11:25.852Z,97270.19
2019-05-14T14:14:01.097Z,97259.83
2019-05-14T14:16:39.546Z,97267.22
2019-05-14T14:19:13.416Z,97263.67
2019-05-14T14:21:49.478Z,97270.25
2019-05-14T14:24:23.870Z,97264.98
2019-05-14T14:27:02.911Z,97270.57
2019-05-14T14:29:39.343Z,97272.27
2019-05-14T14:32:31.502Z,97266.17
2019-05-14T14:35:08.960Z,97256.72
2019-05-14T14:37:43.739Z,97266.28
2019-05-14T14:40:22.191Z,97274.75
2019-05-14T14:42:59.365Z,97270.30
2019-05-14T14:45:32.402Z,97272.89
2019-05-14T14:48:12.152Z,97269.19
2019-05-14T14:50:45.661Z,97287.95
2019-05-14T14:53:40.935Z,97280.59
2019-05-14T14:56:00.398Z,97286.09
2019-05-14T14:58:34.820Z,97280.55
2019-05-14T15:01:08.773Z,97295.17
2019-05-14T15:03:43.366Z,97284.98
2019-05-14T15:06:30.340Z,97296.08
2019-05-14T15:09:02.341Z,97295.28
2019-05-14T15:11:35.726Z,97288.98
2019-05-14T15:14:08.762Z,97301.63
2019-05-14T15:16:42.270Z,97297.64
2019-05-14T15:19:14.253Z,97298.95
2019-05-14T15:21:48.928Z,97303.18
2019-05-14T15:24:20.370Z,97298.72
2019-05-14T15:26:52.591Z,97301.41
2019-05-14T15:29:28.440Z,97302.22
2019-05-14T15:34:55.131Z,97306.44
2019-05-14T15:37:28.620Z,97303.52
2019-05-14T15:40:04.450Z,97309.08
2019-05-14T15:42:39.470Z,97306.95
2019-05-14T15:45:12.997Z,97308.53
2019-05-14T15:47:44.551Z,97308.27
2019-05-14T15:50:20.066Z,97306.98
2019-05-14T15:52:52.479Z,97301.95
2019-05-14T15:55:26.173Z,97306.72
2019-05-14T15:57:59.148Z,97317.01
2019-05-14T16:00:30.731Z,97300.40
2019-05-14T16:03:03.096Z,97299.62
2019-05-14T16:05:40.092Z,97303.03
2019-05-14T16:08:11.989Z,97310.43
2019-05-14T16:10:44.153Z,97310.97
2019-05-14T16:13:36.459Z,97306.75
2019-05-14T16:16:10.648Z,97295.65
2019-05-14T16:18:44.647Z,97308.80
2019-05-14T16:21:18.051Z,97309.57
2019-05-14T16:23:50.053Z,97307.70
2019-05-14T16:26:22.520Z,97314.53
2019-05-14T16:28:59.309Z,97312.44
2019-05-14T16:31:31.493Z,97313.76
2019-05-14T16:34:04.897Z,97306.09
2019-05-14T16:36:41.383Z,97310.29
2019-05-14T16:39:12.105Z,97309.77
2019-05-14T16:41:43.426Z,97314.51
2019-05-14T16:44:14.731Z,97315.56
2019-05-14T16:46:45.987Z,97316.66
2019-05-14T16:49:18.471Z,97318.48
2019-05-14T16:51:50.057Z,97312.95
2019-05-14T16:54:21.592Z,97315.31
2019-05-14T16:56:53.660Z,97315.33
2019-05-14T16:59:25.258Z,97304.78
2019-05-14T17:01:58.467Z,97313.72
2019-05-14T17:04:29.977Z,97311.34
2019-05-14T17:07:04.192Z,97302.63
2019-05-14T17:09:38.325Z,97313.66
2019-05-14T17:12:09.142Z,97317.37
2019-05-14T17:14:41.307Z,97311.55
2019-05-14T17:17:13.305Z,97320.27
2019-05-14T17:19:44.479Z,97327.40
2019-05-14T17:22:27.784Z,97327.17
2019-05-14T17:24:49.179Z,97333.73
2019-05-14T17:27:21.604Z,97325.82
2019-05-14T17:29:53.427Z,97324.98
2019-05-14T17:32:26.320Z,97320.30
2019-05-14T17:34:57.903Z,97325.03
2019-05-14T17:37:29.058Z,97331.06
2019-05-14T17:40:01.453Z,97332.88
2019-05-14T17:42:35.149Z,97328.41
2019-05-14T17:45:12.019Z,97319.72
2019-05-14T17:47:44.549Z,97328.20
2019-05-14T17:50:18.385Z,97328.20
2019-05-14T17:52:56.480Z,97329.25
2019-05-14T17:55:22.807Z,97330.01
2019-05-14T17:57:59.125Z,97319.75
2019-05-14T18:00:29.941Z,97322.67
2019-05-14T18:03:01.378Z,97330.02
2019-05-14T18:05:35.596Z,97330.80
2019-05-14T18:08:09.146Z,97324.76
2019-05-14T18:10:40.397Z,97322.89
2019-05-14T18:13:33.058Z,97330.54
2019-05-14T18:16:09.526Z,97326.56
2019-05-14T18:18:40.970Z,97329.70
2019-05-14T18:21:13.802Z,97321.77
2019-05-14T18:24:06.155Z,97327.30
2019-05-14T18:26:39.282Z,97321.50
2019-05-14T18:29:11.758Z,97324.38
2019-05-14T18:31:45.214Z,97323.80
2019-05-14T18:34:16.158Z,97321.97
2019-05-14T18:36:48.910Z,97321.68
2019-05-14T18:39:21.961Z,97324.83
2019-05-14T18:41:53.392Z,97321.67
2019-05-14T18:44:28.363Z,97320.61
2019-05-14T18:46:59.483Z,97316.14
2019-05-14T18:49:32.830Z,97318.69
2019-05-14T18:52:05.288Z,97325.25
2019-05-14T18:54:38.749Z,97325.23
2019-05-14T18:57:12.271Z,97320.19
2019-05-14T18:59:43.804Z,97324.47
2019-05-14T19:02:18.299Z,97318.94
2019-05-14T19:04:50.421Z,97314.70
2019-05-14T19:07:23.158Z,97311.30
2019-05-14T19:09:58.653Z,97313.63
2019-05-14T19:12:30.118Z,97306.24
2019-05-14T19:15:01.746Z,97304.38
2019-05-14T19:17:34.660Z,97307.27
2019-05-14T19:20:08.980Z,97306.73
2019-05-14T19:22:40.229Z,97303.09
2019-05-14T19:25:12.402Z,97303.81
2019-05-14T19:27:44.901Z,97307.41
2019-05-14T19:30:19.755Z,97307.69
2019-05-14T19:32:51.289Z,97302.92
2019-05-14T19:35:23.044Z,97308.13
2019-05-14T19:37:54.763Z,97306.45
2019-05-14T19:40:28.204Z,97309.59
2019-05-14T19:43:01.485Z,97315.70
2019-05-14T19:45:33.378Z,97312.01
2019-05-14T19:48:08.006Z,97314.55
2019-05-14T19:50:39.026Z,97312.86
2019-05-14T19:53:11.932Z,97311.97
2019-05-14T19:55:45.430Z,97318.61
2019-05-14T19:58:20.233Z,97312.87
2019-05-14T20:00:50.268Z,97303.95
2019-05-14T20:03:23.223Z,97301.56
2019-05-14T20:05:54.662Z,97304.84
2019-05-14T20:08:29.546Z,97311.95
2019-05-14T20:11:01.113Z,97323.15
2019-05-14T20:13:34.193Z,97320.96
2019-05-14T20:16:05.529Z,97319.33
2019-05-14T20:18:38.307Z,97317.64
2019-05-14T20:21:09.908Z,97325.20
2019-05-14T20:23:41.318Z,97326.36
2019-05-14T20:26:14.311Z,97325.23
2019-05-14T20:28:48.211Z,97322.89
2019-05-14T20:31:19.671Z,97324.13
2019-05-14T20:33:53.972Z,97324.27
2019-05-14T20:36:28.055Z,97324.16
2019-05-14T20:38:59.054Z,97328.44
2019-05-14T20:41:30.356Z,97327.54
2019-05-14T20:44:01.711Z,97325.55
2019-05-14T20:46:33.134Z,97328.80
2019-05-14T20:49:04.560Z,97314.31
2019-05-14T20:51:38.658Z,97313.41
2019-05-14T20:54:10.426Z,97306.08
2019-05-14T20:56:41.878Z,97318.06
2019-05-14T20:59:13.826Z,97317.83
2019-05-14T21:01:45.101Z,97319.09
2019-05-14T21:04:18.696Z,97316.66
2019-05-14T21:06:49.333Z,97317.34
2019-05-14T21:09:25.238Z,97329.20
2019-05-14T21:11:57.241Z,97323.75
2019-05-14T21:14:31.557Z,97329.67
2019-05-14T21:17:03.702Z,97334.23
2019-05-14T21:19:35.071Z,97327.69
2019-05-14T21:22:08.375Z,97334.35
2019-05-14T21:24:40.135Z,97328.70
2019-05-14T21:27:13.564Z,97327.11
2019-05-14T21:29:44.883Z,97319.42
2019-05-14T21:32:16.201Z,97312.98
2019-05-14T21:34:49.169Z,97316.28
2019-05-14T21:37:22.065Z,97317.13
2019-05-14T21:39:53.707Z,97309.67
2019-05-14T21:42:25.498Z,97315.55
2019-05-14T21:44:58.407Z,97315.38
2019-05-14T21:47:32.328Z,97315.55
2019-05-14T21:50:05.295Z,97311.50
2019-05-14T21:52:42.192Z,97308.71
2019-05-14T21:55:15.270Z,97300.45
2019-05-14T21:57:57.170Z,97294.75
2019-05-14T22:00:32.453Z,97295.70
2019-05-14T22:03:10.055Z,97291.33
2019-05-14T22:05:40.045Z,97285.73
2019-05-14T22:08:12.539Z,97284.66
2019-05-14T22:10:44.580Z,97282.84
2019-05-14T22:13:15.731Z,97279.66
2019-05-14T22:15:49.390Z,97283.06
2019-05-14T22:18:22.041Z,97285.90
2019-05-14T22:20:54.968Z,97286.95
2019-05-14T22:23:29.346Z,97287.59
2019-05-14T22:26:01.153Z,97273.45
2019-05-14T22:28:34.017Z,97292.50
2019-05-14T22:31:09.126Z,97281.46
2019-05-14T22:33:41.149Z,97286.80
2019-05-14T22:36:12.917Z,97288.13
2019-05-14T22:38:44.150Z,97278.91
2019-05-14T22:41:38.360Z,97282.34
2019-05-14T22:44:11.870Z,97283.00
2019-05-14T22:46:43.207Z,97288.76
2019-05-14T22:49:14.972Z,97284.31
2019-05-14T22:51:49.279Z,97284.03
2019-05-14T22:54:21.086Z,97279.09
2019-05-14T22:56:58.978Z,97270.38
2019-05-14T22:59:33.992Z,97262.45
2019-05-14T23:02:08.457Z,97252.50
2019-05-14T23:04:39.350Z,97234.42
2019-05-14T23:07:14.498Z,97231.88
2019-05-14T23:09:48.229Z,97224.13
2019-05-14T23:12:21.141Z,97225.43
2019-05-14T23:14:55.495Z,97212.50
2019-05-14T23:17:28.071Z,97217.07
2019-05-14T23:20:01.658Z,97216.91
2019-05-14T23:22:53.865Z,97215.06
2019-05-14T23:25:25.695Z,97211.16
2019-05-14T23:27:59.142Z,97217.23
2019-05-14T23:30:34.863Z,97210.23
2019-05-14T23:33:07.684Z,97202.14
2019-05-14T23:35:40.777Z,97189.69
2019-05-14T23:38:14.749Z,97180.27
2019-05-14T23:40:49.299Z,97179.27
2019-05-14T23:43:21.671Z,97182.61
2019-05-14T23:45:55.180Z,97184.73
2019-05-14T23:48:28.041Z,97193.52
2019-05-14T23:51:00.086Z,97197.08
2019-05-14T23:53:34.640Z,97187.98
2019-05-14T23:56:08.656Z,97177.77
2019-05-14T23:58:54.247Z,97174.35
